Time;durP1;ratioP1;P1;durP2;ratioP2;P2;SDS_P1;SDS_P2;PMS_P1;PMS_P2;Temp;Humidity;BMP_temperature;BMP_pressure;BME280_temperature;BME280_humidity;BME280_pressure;Samples;Min_cycle;Max_cycle;Signal;HPM_P1;HPM_P2
2023/11/25 00:00:45;;;;;;;0.40;0.40;;;;;;;3.11;57.36;91184.41;4952395;29;20412;-80
2023/11/25 00:03:11;;;;;;;0.40;0.40;;;;;;;3.11;56.24;91179.22;4945369;29;20055;-80
2023/11/25 00:05:37;;;;;;;0.40;0.40;;;;;;;3.03;56.40;91177.22;4952151;29;20039;-80
2023/11/25 00:08:03;;;;;;;0.50;0.50;;;;;;;3.07;54.16;91183.38;4951958;29;20121;-78
2023/11/25 00:10:28;;;;;;;0.45;0.45;;;;;;;3.03;54.61;91181.63;4934549;29;20043;-79
2023/11/25 00:12:54;;;;;;;0.50;0.50;;;;;;;2.96;54.60;91197.44;4951968;29;20035;-79
2023/11/25 00:15:22;;;;;;;0.50;0.50;;;;;;;2.99;53.73;91186.53;4929612;29;20027;-80
2023/11/25 00:17:48;;;;;;;0.50;0.50;;;;;;;2.90;53.88;91183.78;4950408;28;20114;-80
2023/11/25 00:20:14;;;;;;;0.50;0.50;;;;;;;2.90;51.26;91177.84;4943366;29;20583;-80
2023/11/25 00:22:39;;;;;;;0.50;0.50;;;;;;;2.94;50.42;91184.00;4934279;29;20031;-78
2023/11/25 00:25:05;;;;;;;0.50;0.50;;;;;;;3.10;50.37;91182.84;4951512;28;20038;-80
2023/11/25 00:27:32;;;;;;;0.63;0.63;;;;;;;2.92;50.96;91180.91;4942040;28;20031;-79
2023/11/25 00:29:58;;;;;;;0.68;0.50;;;;;;;2.94;51.65;91183.25;4949155;29;20491;-79
2023/11/25 00:32:24;;;;;;;0.40;0.40;;;;;;;2.87;51.54;91188.72;4961967;28;20038;-79
2023/11/25 00:34:49;;;;;;;0.50;0.50;;;;;;;2.91;49.40;91187.16;4955306;28;20043;-79
2023/11/25 00:37:16;;;;;;;0.55;0.55;;;;;;;2.89;49.31;91189.22;4937127;29;20050;-79
2023/11/25 00:39:42;;;;;;;0.65;0.65;;;;;;;2.83;49.16;91180.72;4953216;29;20062;-80
2023/11/25 00:42:07;;;;;;;0.60;0.60;;;;;;;2.84;50.11;91194.44;4950489;29;20048;-77
2023/11/25 00:44:33;;;;;;;0.50;0.50;;;;;;;3.01;46.56;91184.47;4929354;29;20042;-79
2023/11/25 00:47:00;;;;;;;0.50;0.50;;;;;;;3.09;46.67;91190.88;4934863;29;20054;-78
2023/11/25 00:49:26;;;;;;;0.60;0.60;;;;;;;3.02;46.70;91182.66;4953342;29;20098;-78
2023/11/25 00:51:51;;;;;;;0.50;0.50;;;;;;;2.98;49.87;91200.53;4936335;29;20043;-78
2023/11/25 00:54:17;;;;;;;0.50;0.50;;;;;;;3.05;53.42;91195.81;4958253;28;20133;-78
2023/11/25 00:56:42;;;;;;;1.05;0.60;;;;;;;2.92;55.36;91199.78;4949840;29;20499;-78
2023/11/25 00:59:09;;;;;;;0.63;0.63;;;;;;;2.86;55.92;91194.91;4954871;29;20066;-78
2023/11/25 01:01:35;;;;;;;0.40;0.40;;;;;;;2.79;55.87;91192.66;4914921;29;20051;-78
2023/11/25 01:04:01;;;;;;;0.50;0.50;;;;;;;2.73;56.22;91198.16;4954489;29;20043;-78
2023/11/25 01:06:26;;;;;;;0.52;0.50;;;;;;;2.76;55.21;91197.59;4946686;29;20035;-78
2023/11/25 01:08:53;;;;;;;0.43;0.43;;;;;;;2.81;54.41;91184.63;4944761;29;20538;-78
2023/11/25 01:11:18;;;;;;;0.50;0.50;;;;;;;2.85;53.96;91181.22;4929743;29;20059;-78
2023/11/25 01:13:44;;;;;;;0.47;0.47;;;;;;;2.71;55.30;91186.25;4946189;28;20031;-78
2023/11/25 01:16:17;;;;;;;0.50;0.50;;;;;;;2.71;54.57;91178.50;4950208;29;20051;-78
2023/11/25 01:18:43;;;;;;;0.43;0.43;;;;;;;2.66;55.54;91170.03;4953749;29;20067;-77
2023/11/25 01:21:09;;;;;;;0.57;0.57;;;;;;;2.54;55.65;91180.66;4928944;29;20512;-78
2023/11/25 01:23:35;;;;;;;0.50;0.50;;;;;;;2.55;55.52;91182.22;4935409;29;20028;-78
2023/11/25 01:26:00;;;;;;;0.50;0.50;;;;;;;2.56;56.60;91168.25;4936744;29;20050;-77
2023/11/25 01:28:26;;;;;;;0.40;0.40;;;;;;;2.55;57.81;91174.47;4954295;28;20318;-78
2023/11/25 01:30:51;;;;;;;0.45;0.43;;;;;;;2.69;56.50;91172.81;4952886;29;20118;-78
2023/11/25 01:33:17;;;;;;;0.73;0.55;;;;;;;2.55;56.67;91182.22;4950309;28;20051;-78
2023/11/25 01:35:43;;;;;;;0.63;0.52;;;;;;;2.50;52.78;91171.94;4945777;29;20028;-77
2023/11/25 01:38:09;;;;;;;0.73;0.70;;;;;;;2.44;53.85;91167.84;4928103;29;20031;-78
2023/11/25 01:40:36;;;;;;;0.60;0.60;;;;;;;2.59;47.64;91185.81;4953125;29;20050;-77
2023/11/25 01:43:07;;;;;;;0.50;0.50;;;;;;;2.61;46.24;91170.03;4937042;29;20039;-78
2023/11/25 01:45:33;;;;;;;0.52;0.52;;;;;;;2.67;44.88;91177.47;4952942;29;20058;-78
2023/11/25 01:48:02;;;;;;;0.50;0.50;;;;;;;2.70;47.13;91166.63;4935857;29;20043;-78
2023/11/25 01:50:33;;;;;;;0.52;0.52;;;;;;;2.71;48.01;91173.31;4944131;29;20070;-78
2023/11/25 01:52:59;;;;;;;0.50;0.50;;;;;;;2.93;48.49;91172.13;4943157;29;20047;-78
2023/11/25 01:55:27;;;;;;;0.45;0.45;;;;;;;2.96;48.47;91165.66;4957426;28;20050;-78
2023/11/25 01:57:55;;;;;;;0.50;0.50;;;;;;;2.76;49.95;91176.91;4935904;29;20110;-77
2023/11/25 02:00:23;;;;;;;0.50;0.50;;;;;;;2.76;48.45;91185.44;4935294;29;20058;-78
2023/11/25 02:02:49;;;;;;;0.55;0.55;;;;;;;2.74;47.21;91194.50;4936713;29;20043;-78
2023/11/25 02:05:16;;;;;;;0.52;0.52;;;;;;;2.92;45.55;91183.50;4932933;29;20034;-78
2023/11/25 02:07:43;;;;;;;0.40;0.40;;;;;;;2.83;46.73;91178.13;4934248;29;20048;-78
2023/11/25 02:10:11;;;;;;;0.45;0.45;;;;;;;2.75;48.59;91183.91;4924318;29;20415;-78
2023/11/25 02:12:40;;;;;;;0.60;0.60;;;;;;;2.65;48.82;91178.78;4933836;29;20423;-78
2023/11/25 02:15:10;;;;;;;0.70;0.70;;;;;;;2.61;49.86;91177.78;4935309;29;20038;-78
2023/11/25 02:17:38;;;;;;;0.60;0.60;;;;;;;2.66;46.39;91193.28;4934868;29;20384;-77
2023/11/25 02:20:08;;;;;;;0.50;0.50;;;;;;;2.61;46.70;91196.66;4927653;29;20078;-78
2023/11/25 02:22:36;;;;;;;0.60;0.60;;;;;;;2.59;47.16;91180.66;4928177;29;20042;-78
2023/11/25 02:25:05;;;;;;;0.60;0.60;;;;;;;2.56;47.58;91196.69;4947826;29;20031;-78
2023/11/25 02:27:31;;;;;;;0.50;0.50;;;;;;;2.57;49.04;91200.81;4928358;29;20052;-78
2023/11/25 02:29:57;;;;;;;0.50;0.50;;;;;;;2.63;48.12;91184.22;4958320;28;20082;-78
2023/11/25 02:32:23;;;;;;;0.60;0.60;;;;;;;2.65;44.99;91176.97;4933540;29;20023;-78
2023/11/25 02:34:48;;;;;;;0.40;0.40;;;;;;;2.76;44.40;91197.59;4953167;28;20697;-78
2023/11/25 02:37:15;;;;;;;0.88;0.57;;;;;;;2.79;44.09;91195.25;4954621;28;20043;-78
2023/11/25 02:39:42;;;;;;;0.50;0.50;;;;;;;2.85;44.39;91201.91;4933960;29;20050;-78
2023/11/25 02:42:09;;;;;;;0.50;0.50;;;;;;;2.82;46.05;91186.19;4951736;29;20063;-78
2023/11/25 02:44:36;;;;;;;0.95;0.52;;;;;;;2.83;46.23;91198.81;4935265;29;20039;-78
2023/11/25 02:47:02;;;;;;;0.50;0.50;;;;;;;2.80;46.40;91185.69;4934292;29;20098;-77
2023/11/25 02:49:27;;;;;;;0.50;0.50;;;;;;;2.78;48.83;91180.00;4952140;28;20047;-77
2023/11/25 02:51:58;;;;;;;0.50;0.50;;;;;;;2.67;48.61;91172.31;4951149;28;20035;-77
2023/11/25 02:54:24;;;;;;;0.50;0.50;;;;;;;2.58;48.81;91166.19;4918640;29;20035;-77
2023/11/25 02:56:50;;;;;;;0.50;0.50;;;;;;;2.61;50.16;91165.66;4933039;29;20063;-78
2023/11/25 02:59:19;;;;;;;0.50;0.50;;;;;;;2.64;49.50;91185.03;4933520;29;20106;-78
2023/11/25 03:01:48;;;;;;;0.60;0.60;;;;;;;2.52;49.58;91190.50;4945319;29;20082;-78
2023/11/25 03:04:20;;;;;;;0.57;0.57;;;;;;;2.44;49.42;91176.34;4915533;29;20058;-78
2023/11/25 03:06:48;;;;;;;0.52;0.52;;;;;;;2.43;49.28;91180.00;4946824;29;20554;-77
2023/11/25 03:09:14;;;;;;;0.60;0.60;;;;;;;2.41;49.09;91184.66;4910940;29;20511;-78
2023/11/25 03:11:40;;;;;;;0.60;0.60;;;;;;;2.31;48.65;91176.19;4951614;29;20495;-78
2023/11/25 03:14:06;;;;;;;1.40;0.70;;;;;;;2.29;49.07;91177.19;4932596;29;20034;-77
2023/11/25 03:16:33;;;;;;;0.50;0.50;;;;;;;2.19;48.69;91179.84;4950378;29;20387;-77
2023/11/25 03:18:59;;;;;;;0.55;0.55;;;;;;;2.22;48.00;91173.38;4932455;29;20031;-77
2023/11/25 03:21:25;;;;;;;0.50;0.50;;;;;;;2.17;47.97;91181.16;4949274;29;20085;-77
2023/11/25 03:23:51;;;;;;;0.50;0.50;;;;;;;2.19;47.99;91189.41;4942822;29;20631;-77
2023/11/25 03:26:16;;;;;;;0.70;0.60;;;;;;;2.08;47.71;91186.09;4948383;29;20054;-77
2023/11/25 03:28:44;;;;;;;0.50;0.50;;;;;;;2.11;46.64;91197.72;4930046;29;20043;-77
2023/11/25 03:31:12;;;;;;;0.60;0.60;;;;;;;2.08;45.75;91183.53;4945403;28;20041;-77
2023/11/25 03:33:38;;;;;;;0.70;0.70;;;;;;;2.11;45.52;91203.63;4946524;29;20035;-77
2023/11/25 03:36:04;;;;;;;0.60;0.60;;;;;;;2.28;44.57;91188.59;4933269;29;20050;-77
2023/11/25 03:38:30;;;;;;;0.50;0.50;;;;;;;2.40;42.81;91205.56;4932398;29;20086;-77
2023/11/25 03:40:56;;;;;;;0.52;0.52;;;;;;;2.40;43.01;91205.56;4931297;29;20031;-77
2023/11/25 03:43:23;;;;;;;0.50;0.50;;;;;;;2.47;42.27;91200.88;4929957;29;20142;-77
2023/11/25 03:45:50;;;;;;;0.50;0.50;;;;;;;2.49;41.40;91211.72;4928338;29;20063;-77
2023/11/25 03:48:16;;;;;;;0.68;0.68;;;;;;;2.57;42.78;91203.41;4933118;29;20051;-79
2023/11/25 03:50:42;;;;;;;0.40;0.40;;;;;;;2.56;43.54;91207.00;4944079;29;20047;-78
2023/11/25 03:53:08;;;;;;;0.52;0.50;;;;;;;2.58;43.60;91207.53;4949996;29;20492;-78
2023/11/25 03:55:34;;;;;;;0.50;0.50;;;;;;;2.54;44.69;91208.31;4930819;29;20036;-78
2023/11/25 03:58:01;;;;;;;0.50;0.50;;;;;;;2.44;44.66;91201.41;4930874;29;20043;-79
2023/11/25 04:00:27;;;;;;;0.55;0.55;;;;;;;2.39;45.30;91214.38;4953231;28;20046;-77
2023/11/25 04:02:53;;;;;;;1.05;0.60;;;;;;;2.41;46.15;91202.72;4937981;29;20114;-78
2023/11/25 04:05:19;;;;;;;0.77;0.50;;;;;;;2.53;45.98;91184.31;4937908;29;20035;-78
2023/11/25 04:07:46;;;;;;;0.68;0.60;;;;;;;2.52;43.71;91175.00;4947283;29;20120;-78
2023/11/25 04:10:14;;;;;;;0.50;0.50;;;;;;;2.50;44.57;91182.28;4949992;29;20118;-77
2023/11/25 04:12:47;;;;;;;0.50;0.50;;;;;;;2.48;44.37;91192.09;4937083;29;20591;-76
2023/11/25 04:15:15;;;;;;;0.50;0.50;;;;;;;2.43;44.16;91163.69;4930063;29;20446;-76
2023/11/25 04:17:41;;;;;;;0.50;0.50;;;;;;;2.38;44.44;91181.81;4950489;28;20070;-79
2023/11/25 04:20:17;;;;;;;0.50;0.50;;;;;;;2.40;43.98;91193.41;4947786;28;20030;-79
2023/11/25 04:22:44;;;;;;;0.40;0.40;;;;;;;2.37;42.83;91204.28;4936997;29;20031;-76
2023/11/25 04:25:11;;;;;;;0.50;0.50;;;;;;;2.43;43.01;91182.56;4942744;29;20067;-76
2023/11/25 04:27:49;;;;;;;0.47;0.47;;;;;;;2.32;42.67;91194.00;4956198;28;20038;-76
2023/11/25 04:30:17;;;;;;;0.60;0.60;;;;;;;2.31;44.11;91181.34;4954665;28;20451;-78
2023/11/25 04:32:45;;;;;;;0.60;0.60;;;;;;;2.36;42.24;91183.88;4952263;29;20054;-78
2023/11/25 04:35:13;;;;;;;0.50;0.50;;;;;;;2.40;42.19;91187.50;4949597;29;20118;-78
2023/11/25 04:37:43;;;;;;;0.55;0.55;;;;;;;2.29;40.55;91212.59;4937645;29;20051;-78
2023/11/25 04:40:11;;;;;;;0.60;0.60;;;;;;;2.29;40.31;91184.94;4942442;29;20039;-78
2023/11/25 04:42:38;;;;;;;0.50;0.50;;;;;;;2.37;39.60;91186.22;4943138;29;20392;-78
2023/11/25 04:45:04;;;;;;;0.47;0.47;;;;;;;2.43;39.54;91212.78;4943031;29;20074;-77
2023/11/25 04:47:30;;;;;;;0.60;0.60;;;;;;;2.38;40.16;91218.75;4949227;29;20053;-77
2023/11/25 04:49:55;;;;;;;0.50;0.50;;;;;;;2.46;39.56;91207.09;4945097;28;20491;-77
2023/11/25 04:52:21;;;;;;;0.40;0.40;;;;;;;2.52;39.93;91218.91;4951614;29;20082;-77
2023/11/25 04:54:48;;;;;;;0.60;0.60;;;;;;;2.55;40.58;91218.41;4953013;29;20082;-77
2023/11/25 04:57:14;;;;;;;0.50;0.50;;;;;;;2.57;41.10;91225.88;4950640;29;20099;-78
2023/11/25 04:59:40;;;;;;;0.50;0.50;;;;;;;2.53;41.69;91230.81;4950607;29;20027;-77
2023/11/25 05:02:06;;;;;;;0.70;0.70;;;;;;;2.55;42.56;91227.97;4946767;29;20031;-78
2023/11/25 05:04:32;;;;;;;1.23;0.50;;;;;;;2.47;42.40;91224.13;4953594;29;20042;-77
2023/11/25 05:06:58;;;;;;;0.50;0.50;;;;;;;2.39;42.37;91240.19;4937877;29;20043;-77
2023/11/25 05:09:26;;;;;;;0.50;0.50;;;;;;;2.45;42.75;91213.28;4953614;29;20546;-78
2023/11/25 05:11:53;;;;;;;0.40;0.40;;;;;;;2.45;43.43;91241.69;4951467;28;20043;-78
2023/11/25 05:14:19;;;;;;;0.50;0.50;;;;;;;2.39;45.21;91246.13;4945655;29;20039;-77
2023/11/25 05:16:46;;;;;;;0.50;0.50;;;;;;;2.36;43.49;91235.53;4953142;29;20031;-79
2023/11/25 05:19:12;;;;;;;0.45;0.45;;;;;;;2.33;44.41;91254.16;4945477;29;20095;-77
2023/11/25 05:21:38;;;;;;;0.45;0.45;;;;;;;2.51;44.16;91258.72;4946110;29;20560;-79
2023/11/25 05:24:04;;;;;;;0.50;0.50;;;;;;;2.43;44.45;91257.47;4950350;29;20052;-77
2023/11/25 05:26:30;;;;;;;0.73;0.60;;;;;;;2.46;43.67;91263.91;4947307;29;20566;-78
2023/11/25 05:28:56;;;;;;;0.40;0.40;;;;;;;2.36;45.69;91266.53;4948175;28;20035;-78
2023/11/25 05:31:22;;;;;;;0.57;0.57;;;;;;;2.30;45.64;91265.81;4945105;29;20062;-77
2023/11/25 05:33:48;;;;;;;0.50;0.50;;;;;;;2.22;46.01;91274.84;4940620;29;20519;-78
2023/11/25 05:36:14;;;;;;;0.40;0.40;;;;;;;2.20;46.79;91299.41;4920323;29;20043;-78
2023/11/25 05:38:40;;;;;;;0.50;0.50;;;;;;;2.16;46.62;91278.50;4953350;29;20031;-78
2023/11/25 05:41:08;;;;;;;0.43;0.43;;;;;;;2.11;45.14;91290.66;4933192;29;20068;-78
2023/11/25 05:43:34;;;;;;;0.50;0.50;;;;;;;2.08;49.47;91308.22;4948522;29;20087;-78
2023/11/25 05:46:00;;;;;;;0.50;0.50;;;;;;;2.05;51.75;91307.97;4951790;29;20047;-78
2023/11/25 05:48:27;;;;;;;0.50;0.50;;;;;;;1.98;51.51;91302.28;4952320;29;20063;-76
2023/11/25 05:50:52;;;;;;;0.60;0.60;;;;;;;1.84;51.40;91318.31;4942719;29;20108;-76
2023/11/25 05:53:18;;;;;;;0.57;0.57;;;;;;;1.72;53.61;91324.81;4945344;29;20497;-77
2023/11/25 05:55:44;;;;;;;0.60;0.60;;;;;;;1.65;54.80;91323.25;4950283;28;20110;-76
2023/11/25 05:58:09;;;;;;;1.95;0.60;;;;;;;1.54;57.08;91342.34;4951785;29;20500;-76
2023/11/25 06:00:35;;;;;;;0.50;0.50;;;;;;;1.50;57.83;91337.97;4943043;29;20027;-76
2023/11/25 06:03:01;;;;;;;0.60;0.60;;;;;;;1.41;59.45;91330.75;4949515;28;20565;-76
2023/11/25 06:05:27;;;;;;;0.50;0.50;;;;;;;1.28;59.96;91339.00;4932908;29;20045;-76
2023/11/25 06:07:54;;;;;;;0.50;0.50;;;;;;;1.27;59.65;91334.09;4911656;29;20537;-76
2023/11/25 06:10:19;;;;;;;0.60;0.60;;;;;;;1.23;60.98;91323.53;4931294;29;20031;-76
2023/11/25 06:12:45;;;;;;;0.60;0.60;;;;;;;1.17;61.42;91340.00;4951197;29;20411;-76
2023/11/25 06:15:11;;;;;;;0.70;0.70;;;;;;;1.30;60.04;91339.50;4947643;29;20174;-76
2023/11/25 06:17:37;;;;;;;0.50;0.50;;;;;;;1.25;56.21;91354.97;4943577;29;20398;-76
2023/11/25 06:20:03;;;;;;;0.50;0.50;;;;;;;1.33;53.58;91353.69;4942205;29;20031;-76
2023/11/25 06:22:29;;;;;;;0.60;0.60;;;;;;;1.32;51.39;91367.63;4937095;29;20036;-76
2023/11/25 06:24:57;;;;;;;0.43;0.43;;;;;;;1.66;45.93;91342.09;4949532;29;20062;-76
2023/11/25 06:27:24;;;;;;;0.60;0.60;;;;;;;1.63;46.98;91365.84;4943805;28;20415;-76
2023/11/25 06:29:49;;;;;;;0.55;0.55;;;;;;;1.68;46.37;91363.25;4949744;29;20068;-76
2023/11/25 06:32:15;;;;;;;0.50;0.50;;;;;;;1.66;46.55;91367.88;4939643;29;20093;-76
2023/11/25 06:34:41;;;;;;;0.50;0.50;;;;;;;1.63;47.08;91386.47;4942298;29;20034;-76
2023/11/25 06:37:07;;;;;;;0.40;0.40;;;;;;;1.69;46.61;91376.91;4947133;29;20534;-77
2023/11/25 06:39:33;;;;;;;0.60;0.60;;;;;;;1.64;47.25;91391.38;4929438;29;20032;-77
2023/11/25 06:42:00;;;;;;;0.50;0.50;;;;;;;1.73;47.20;91372.78;4942657;29;20043;-77
2023/11/25 06:44:27;;;;;;;0.50;0.50;;;;;;;1.67;47.00;91375.38;4932613;28;20039;-76
2023/11/25 06:46:52;;;;;;;0.55;0.55;;;;;;;1.63;47.90;91386.47;4945839;28;20059;-77
2023/11/25 06:49:19;;;;;;;0.50;0.50;;;;;;;1.57;48.32;91396.00;4953938;29;20027;-80
2023/11/25 06:51:44;;;;;;;0.57;0.57;;;;;;;1.56;48.23;91402.19;4952516;29;20031;-79
2023/11/25 06:54:10;;;;;;;0.60;0.57;;;;;;;1.74;46.72;91395.00;4937678;29;20031;-79
2023/11/25 06:56:36;;;;;;;0.68;0.68;;;;;;;1.57;47.21;91393.41;4958413;29;20479;-79
2023/11/25 06:59:03;;;;;;;0.60;0.60;;;;;;;1.62;47.77;91421.03;4952298;28;20046;-78
2023/11/25 07:01:28;;;;;;;0.60;0.60;;;;;;;1.68;47.95;91417.41;4939184;29;20407;-79
2023/11/25 07:03:55;;;;;;;0.60;0.60;;;;;;;2.10;46.86;91426.72;4955256;29;20146;-79
2023/11/25 07:06:21;;;;;;;0.70;0.70;;;;;;;3.03;45.19;91438.34;4933860;29;20043;-79
2023/11/25 07:08:47;;;;;;;0.50;0.50;;;;;;;3.87;41.95;91430.63;4939464;29;20031;-78
2023/11/25 07:11:16;;;;;;;1.13;0.60;;;;;;;5.10;38.19;91424.25;4938655;29;20416;-79
2023/11/25 07:13:42;;;;;;;0.60;0.60;;;;;;;5.99;37.02;91431.41;4949827;29;20058;-79
2023/11/25 07:16:11;;;;;;;0.50;0.50;;;;;;;6.95;35.52;91432.63;4936959;29;20062;-81
2023/11/25 07:18:42;;;;;;;0.70;0.60;;;;;;;7.86;33.52;91437.06;4921114;29;20097;-79
2023/11/25 07:21:11;;;;;;;0.50;0.50;;;;;;;8.52;32.25;91444.44;4954122;29;20039;-79
2023/11/25 07:23:40;;;;;;;0.57;0.57;;;;;;;8.98;30.91;91442.50;4957280;29;20099;-79
2023/11/25 07:26:06;;;;;;;0.57;0.57;;;;;;;9.42;30.56;91441.59;4938511;29;20061;-78
2023/11/25 07:28:33;;;;;;;0.60;0.60;;;;;;;10.06;30.42;91456.72;4953618;28;20093;-80
2023/11/25 07:30:59;;;;;;;0.57;0.55;;;;;;;10.70;29.28;91466.56;4920076;28;20528;-79
2023/11/25 07:33:25;;;;;;;0.52;0.52;;;;;;;11.23;28.31;91459.31;4948825;29;20123;-78
2023/11/25 07:35:51;;;;;;;0.60;0.60;;;;;;;12.19;27.25;91467.47;4915753;29;20507;-78
2023/11/25 07:38:17;;;;;;;0.68;0.60;;;;;;;12.38;25.73;91471.47;4942585;28;20411;-78
2023/11/25 07:40:43;;;;;;;0.50;0.50;;;;;;;12.57;26.14;91486.78;4947256;29;20070;-78
2023/11/25 07:43:08;;;;;;;0.50;0.50;;;;;;;12.89;25.24;91487.88;4924849;29;20556;-78
2023/11/25 07:45:34;;;;;;;0.50;0.50;;;;;;;13.60;26.15;91502.59;4929072;29;20056;-77
2023/11/25 07:48:00;;;;;;;0.40;0.40;;;;;;;13.01;27.19;91514.16;4927129;29;20040;-79
2023/11/25 07:50:26;;;;;;;0.47;0.47;;;;;;;14.18;26.72;91512.22;4931788;29;20044;-79
2023/11/25 07:52:53;;;;;;;0.68;0.60;;;;;;;13.90;26.41;91507.63;4931973;29;20043;-78
2023/11/25 07:55:19;;;;;;;0.60;0.60;;;;;;;13.32;27.25;91523.47;4924939;29;20253;-79
2023/11/25 07:57:47;;;;;;;0.63;0.50;;;;;;;12.79;25.25;91525.81;4915552;29;20062;-78
2023/11/25 08:00:19;;;;;;;0.60;0.60;;;;;;;13.85;25.12;91528.91;4917755;29;20256;-79
2023/11/25 08:02:47;;;;;;;0.57;0.57;;;;;;;13.25;26.51;91539.75;4932336;29;20028;-79
2023/11/25 08:05:21;;;;;;;0.40;0.40;;;;;;;14.34;27.11;91537.53;4928587;29;20142;-79
2023/11/25 08:07:51;;;;;;;0.55;0.55;;;;;;;14.88;24.23;91535.66;4916997;29;20042;-79
2023/11/25 08:10:18;;;;;;;0.65;0.60;;;;;;;15.81;22.57;91551.25;4929861;29;20048;-79
2023/11/25 08:12:45;;;;;;;0.55;0.40;;;;;;;16.09;21.94;91545.09;4931260;29;20024;-78
2023/11/25 08:15:14;;;;;;;0.60;0.60;;;;;;;15.91;22.85;91563.16;4927686;29;20530;-80
2023/11/25 08:17:42;;;;;;;0.43;0.43;;;;;;;16.81;22.58;91545.53;4937379;29;20455;-79
2023/11/25 08:20:11;;;;;;;0.40;0.40;;;;;;;16.77;20.06;91542.03;4927870;29;20641;-79
2023/11/25 08:22:38;;;;;;;0.40;0.40;;;;;;;16.99;21.63;91550.44;4930607;29;20103;-81
2023/11/25 08:25:07;;;;;;;0.30;0.30;;;;;;;16.62;21.23;91548.16;4931731;29;20105;-78
2023/11/25 08:27:34;;;;;;;0.50;0.50;;;;;;;16.42;20.04;91556.03;4931274;29;20044;-79
2023/11/25 08:30:00;;;;;;;0.50;0.50;;;;;;;17.01;20.22;91569.34;4927556;29;20051;-81
2023/11/25 08:32:26;;;;;;;0.52;0.40;;;;;;;16.24;21.37;91576.75;4927147;29;20040;-80
2023/11/25 08:34:51;;;;;;;0.30;0.30;;;;;;;17.11;20.99;91570.66;4933570;29;20058;-81
2023/11/25 08:37:17;;;;;;;0.30;0.30;;;;;;;15.38;22.68;91573.91;4932644;29;20301;-80
2023/11/25 08:39:45;;;;;;;0.28;0.28;;;;;;;14.14;23.92;91583.94;4933555;29;20036;-80
2023/11/25 08:42:14;;;;;;;0.40;0.40;;;;;;;12.64;24.83;91590.19;4922047;29;20485;-81
2023/11/25 08:44:43;;;;;;;0.38;0.38;;;;;;;11.94;27.02;91595.06;4932634;29;20043;-80
2023/11/25 08:47:08;;;;;;;0.50;0.50;;;;;;;11.94;26.08;91594.28;4944533;29;20039;-80
2023/11/25 08:49:34;;;;;;;0.30;0.30;;;;;;;12.62;22.57;91596.84;4950409;29;20611;-81
2023/11/25 08:51:59;;;;;;;0.50;0.50;;;;;;;11.24;25.85;91595.25;4939139;29;20380;-80
2023/11/25 08:54:25;;;;;;;0.43;0.43;;;;;;;11.00;26.30;91594.97;4951741;29;20044;-81
2023/11/25 08:56:53;;;;;;;0.30;0.30;;;;;;;10.19;26.84;91599.66;4948202;29;20039;-79
2023/11/25 08:59:20;;;;;;;0.50;0.50;;;;;;;8.52;30.22;91606.16;4949579;29;20066;-79
2023/11/25 09:01:47;;;;;;;0.40;0.40;;;;;;;8.74;30.73;91610.63;4955686;29;20551;-78
2023/11/25 09:04:19;;;;;;;1.10;0.60;;;;;;;9.10;29.38;91613.19;4948694;29;20035;-79
2023/11/25 09:06:48;;;;;;;0.80;0.80;;;;;;;9.68;27.63;91619.34;4955895;29;20590;-79
2023/11/25 09:09:16;;;;;;;0.45;0.45;;;;;;;9.73;28.04;91628.91;4952353;29;20314;-79
2023/11/25 09:11:43;;;;;;;0.52;0.52;;;;;;;9.49;25.48;91621.41;4955779;29;20094;-79
2023/11/25 09:14:09;;;;;;;0.88;0.60;;;;;;;9.59;26.96;91626.34;4948071;29;20035;-78
2023/11/25 09:16:34;;;;;;;1.52;0.60;;;;;;;9.66;26.56;91639.78;4947793;29;20091;-78
2023/11/25 09:19:03;;;;;;;0.60;0.60;;;;;;;8.87;27.44;91650.78;4933545;29;20455;-79
2023/11/25 09:21:29;;;;;;;0.50;0.50;;;;;;;8.43;28.30;91632.16;4930148;29;20560;-79
2023/11/25 09:23:55;;;;;;;0.50;0.50;;;;;;;7.88;28.64;91653.81;4945909;29;20106;-79
2023/11/25 09:26:24;;;;;;;0.60;0.50;;;;;;;7.16;30.66;91654.28;4950704;29;20039;-79
2023/11/25 09:28:50;;;;;;;0.55;0.55;;;;;;;7.34;28.59;91644.06;4945167;28;20051;-79
2023/11/25 09:31:16;;;;;;;0.50;0.50;;;;;;;8.01;28.72;91654.84;4954261;29;20039;-79
2023/11/25 09:33:43;;;;;;;0.50;0.50;;;;;;;8.38;27.96;91660.94;4955721;29;20039;-80
2023/11/25 09:36:12;;;;;;;0.40;0.40;;;;;;;7.98;27.21;91665.88;4932693;29;20069;-79
2023/11/25 09:38:38;;;;;;;0.60;0.60;;;;;;;8.09;28.90;91680.25;4937559;29;20155;-79
2023/11/25 09:41:05;;;;;;;0.68;0.60;;;;;;;8.08;25.79;91667.50;4952484;29;20035;-78
2023/11/25 09:43:31;;;;;;;0.73;0.50;;;;;;;7.51;27.07;91684.16;4954464;28;20039;-79
2023/11/25 09:45:57;;;;;;;0.50;0.50;;;;;;;7.65;25.31;91673.75;4952588;29;20048;-79
2023/11/25 09:48:23;;;;;;;0.45;0.45;;;;;;;7.62;28.12;91676.16;4948204;28;20091;-78
2023/11/25 09:50:53;;;;;;;0.45;0.45;;;;;;;8.18;26.58;91680.34;4936130;29;20051;-80
2023/11/25 09:53:29;;;;;;;0.40;0.40;;;;;;;8.12;25.34;91684.88;4949758;29;20107;-79
2023/11/25 09:56:06;;;;;;;0.50;0.50;;;;;;;8.23;25.71;91674.28;4952059;29;20046;-79
2023/11/25 09:58:36;;;;;;;0.45;0.45;;;;;;;7.90;26.01;91682.16;4948918;29;20550;-79
2023/11/25 10:01:06;;;;;;;0.60;0.60;;;;;;;8.14;24.45;91677.53;4955472;29;20111;-80
2023/11/25 10:03:38;;;;;;;0.50;0.50;;;;;;;8.14;24.42;91674.94;4956501;28;20045;-80
2023/11/25 10:06:04;;;;;;;;;;;;;;;8.41;24.51;91659.59;4938513;29;20086;-80
2023/11/25 10:08:30;;;;;;;0.45;0.45;;;;;;;8.52;23.72;91679.19;4954730;28;19914;-79
2023/11/25 10:11:08;;;;;;;0.70;0.50;;;;;;;8.42;24.53;91679.38;4954940;28;20047;-78
2023/11/25 10:13:35;;;;;;;0.60;0.60;;;;;;;8.63;23.50;91674.53;4954725;29;20027;-80
2023/11/25 10:16:05;;;;;;;0.50;0.50;;;;;;;8.55;24.18;91686.44;4954065;29;20034;-79
2023/11/25 10:18:34;;;;;;;0.47;0.45;;;;;;;8.86;23.54;91689.16;4950132;28;20361;-79
2023/11/25 10:21:00;;;;;;;0.50;0.50;;;;;;;8.90;22.80;91687.53;4952656;29;20042;-80
2023/11/25 10:23:27;;;;;;;0.50;0.50;;;;;;;8.82;22.38;91690.81;4937574;29;20035;-80
2023/11/25 10:25:55;;;;;;;0.50;0.50;;;;;;;8.44;23.49;91701.50;4952841;29;20039;-81
2023/11/25 10:28:25;;;;;;;0.60;0.60;;;;;;;8.63;22.29;91687.59;4930330;29;20076;-79
2023/11/25 10:30:59;;;;;;;0.73;0.45;;;;;;;8.73;22.72;91687.34;4955267;29;20043;-79
2023/11/25 10:33:28;;;;;;;0.50;0.50;;;;;;;9.04;23.42;91673.66;4937964;29;20059;-80
2023/11/25 10:35:55;;;;;;;1.40;0.60;;;;;;;9.02;22.27;91691.44;4938151;29;20131;-79
2023/11/25 10:38:27;;;;;;;0.70;0.70;;;;;;;9.33;21.16;91688.91;4955160;28;20035;-80
2023/11/25 10:41:05;;;;;;;1.00;0.60;;;;;;;8.60;22.03;91693.38;4946408;29;20054;-78
2023/11/25 10:43:32;;;;;;;0.57;0.57;;;;;;;8.50;19.67;91702.97;4967342;28;20047;-79
2023/11/25 10:46:16;;;;;;;1.02;0.70;;;;;;;8.89;20.72;91693.81;4959002;29;20412;-80
2023/11/25 10:48:42;;;;;;;0.47;0.47;;;;;;;8.99;21.19;91692.06;4948351;29;20035;-79
2023/11/25 10:51:08;;;;;;;0.73;0.60;;;;;;;9.07;20.43;91691.31;4954361;29;20059;-79
2023/11/25 10:53:36;;;;;;;0.68;0.60;;;;;;;9.45;21.32;91691.75;4952206;29;20039;-80
2023/11/25 10:56:03;;;;;;;0.60;0.60;;;;;;;9.53;21.56;91680.59;4948984;29;20042;-79
2023/11/25 10:58:30;;;;;;;0.30;0.30;;;;;;;9.46;21.12;91687.31;4950645;28;20042;-79
2023/11/25 11:00:57;;;;;;;0.60;0.60;;;;;;;8.71;20.09;91694.72;4937146;29;20141;-79
2023/11/25 11:03:42;;;;;;;0.52;0.52;;;;;;;9.10;21.61;91695.97;4936547;29;20317;-79
2023/11/25 11:06:11;;;;;;;0.60;0.60;;;;;;;9.37;21.46;91695.84;4941632;29;20492;-78
2023/11/25 11:08:41;;;;;;;0.50;0.50;;;;;;;9.54;20.15;91683.97;4949172;29;20031;-80
2023/11/25 11:11:14;;;;;;;0.95;0.65;;;;;;;8.60;20.77;91685.56;4949800;29;20039;-79
2023/11/25 11:13:46;;;;;;;0.70;0.63;;;;;;;8.99;22.84;91692.06;4953306;29;20031;-81
2023/11/25 11:16:31;;;;;;;0.70;0.70;;;;;;;9.46;21.33;91687.31;4955679;29;20047;-80
2023/11/25 11:18:59;;;;;;;0.50;0.50;;;;;;;9.46;21.41;91687.31;4950460;28;20617;-80
2023/11/25 11:21:31;;;;;;;0.75;0.70;;;;;;;8.70;19.60;91690.56;4947088;29;20044;-80
2023/11/25 11:23:57;;;;;;;0.60;0.60;;;;;;;8.69;21.05;91679.38;4936808;29;20043;-81
2023/11/25 11:26:54;;;;;;;0.60;0.60;;;;;;;8.64;22.49;91689.13;4946550;29;20045;-80
2023/11/25 11:29:28;;;;;;;0.60;0.60;;;;;;;8.93;21.20;91684.31;4953324;29;20089;-79
2023/11/25 11:32:02;;;;;;;0.55;0.55;;;;;;;8.64;20.44;91689.88;4954106;29;20086;-78
2023/11/25 11:34:33;;;;;;;0.82;0.50;;;;;;;8.70;21.65;91682.75;4932246;29;20047;-79
2023/11/25 11:37:00;;;;;;;0.50;0.50;;;;;;;8.67;21.21;91685.91;4947342;29;20035;-80
2023/11/25 11:39:50;;;;;;;0.55;0.55;;;;;;;8.99;20.53;91694.66;4953730;29;20020;-81
2023/11/25 11:42:34;;;;;;;0.43;0.43;;;;;;;9.37;19.39;91693.25;4929065;29;20084;-81